Portada
METAR-TAF:

METAR-TAF

Aeroports :

Conyac, França

latitud: 45-40N, longitud: 000-19W, altitud: 30 m

Observació

L'informe es va fer fa 27 minuts, a les 07:00 UTC
Vent 5 kt del Est/Nord-Est
Temperatura 1°C
Humitat 80%
Pressió 1029 hPa
Visibilitat 10 km o més
sense núvols per sota de 1500 mi sense presència de cumulonimbus.

METAR: LFBG 220700Z AUTO 06005KT CAVOK 01/M02 Q1029 NOSIG

Hora: 08:27 (07:27 UTC)

Pronòstic

L'informe es va fer fa 2 hores i 2 minuts, a les 05:25 UTC
Pronòstic vàlid del 22 a les 05 UTC al 23 a les 03 UTC
Vent 10 kt del Nord-Est
Visibilitat 10 km o més
sense núvols per sota de 1500 mi sense presència de cumulonimbus.

TAF: LFBG 220525Z 2205/2303 04010KT CAVOK

Observacions i pronòstics meteorològics de més de 4000 aeroports (METAR i TAF).

Les estacions disponibles són els punts grocs i vermells al mapa.

Posi el ratolí al punt desitjat per veure el nom de l'estació.

Feu clic per veure les observacions i els pronòstics meteorològics.

Per canviar el mapa: feu clic els botons verds amb una creu de color negre per apropar; al botó verd amb un guió per allunyar la imatge; o en les fletxes verdes per a mapes adjacents.


METAR-TAF: